עמוד ראשי
METAR-TAF:

METAR-TAF

שדות תעופה :

Puerto Cabezas, ניקרגואה

קו רוחב: 14-03N, קו אורך: 083-22W, גובה: 20מטר

תצפית מזג אוויר נוכחית

הדו"ח נערך לפני 13 שעות ו 0דקות, בשעה 23:00 UTC
רוח 6קשר מכיוון מזרח
טמפרטורת 30 צלסיוס
לחות 75%
לחץ 1011 hPa
ראות: 6000מטר
מעט עננים בגובה 1400רגל , קומולונימבוס.
עננים פזורים בגובה 1600רגל , קומולוס מיגדלי.
באזור, גשם,

METAR: MNPC 282300Z 09006KT 6000 VCRA FEW014CB SCT016TCU 30/25 Q1011 CBRA/SE/SW TCURA/E/W

זמן: 06:00 (12:00 UTC)

תחזית

הדו"ח נערך לפני 14 שעות ו 0דקות, בשעה 22:00 UTC
תחזית בתוקף מ 29 ב 00 UTC עד 29 ב 24 UTC
רוח 8קשר מכיוון מזרח
ראות 10 קילומטר או יותר
עננים פזורים בגובה 1600רגל
זמנית מ -
29 ב 03 UTC עד 29 ב 10 UTC
רוח 4קשר מכיוון מזרח/דרום-מזרח
ראות: 7000מטר
עננים בינוניים בגובה 1600רגל
גשם
יעשה מ
29 ב 12 UTC עד 29 ב 14 UTC
רוח 10קשר מכיוון מזרח
עננים פזורים בגובה 2000רגל
עננים פזורים בגובה 10000רגל

TAF: MNPC 282200Z 2900/2924 09008KT 9999 SCT016 TEMPO 2903/2910 11004KT 7000 RA BKN016 BECMG 2912/2914 08010KT SCT020 SCT100

תצפיות ותחזיות מזג אוויר לגבי יותר מ- 4,000 שדות תעופה ברחבי העולם. דוחות METAR ו- TAF.

התחנות הזמינות מסומנות בנקודות צהובות ואדומות על גבי המפה.

העבר את העכבר לנקודה הצבעונית על מנת לראות את שם התחנה.

לאחר מכן, לחץ כדי לראות את תוכן ואת תחזיות מזג האוויר.

כדי לשנות את המפה: לחץ על הכפתורים הירוקים עם הפלוס השחור כדי להתקרב; על הכפתור הירוק עם המקף כדי להתרחק; או בחיצים הירוקים למפות סמוכות.


METAR-TAF: